sensor_id;sensor_type;location;lat;lon;timestamp;P1;durP1;ratioP1;P2;durP2;ratioP2
37903;SDS011;23738;50.422;18.758;2022-12-07T00:01:15;17.97;;;13.27;;
37903;SDS011;23738;50.422;18.758;2022-12-07T00:03:53;18.67;;;12.70;;
37903;SDS011;23738;50.422;18.758;2022-12-07T00:06:26;21.10;;;14.37;;
37903;SDS011;23738;50.422;18.758;2022-12-07T00:08:52;21.23;;;14.37;;
37903;SDS011;23738;50.422;18.758;2022-12-07T00:11:20;20.73;;;14.10;;
37903;SDS011;23738;50.422;18.758;2022-12-07T00:13:50;16.20;;;12.50;;
37903;SDS011;23738;50.422;18.758;2022-12-07T00:16:20;18.80;;;11.60;;
37903;SDS011;23738;50.422;18.758;2022-12-07T00:18:49;17.50;;;11.57;;
37903;SDS011;23738;50.422;18.758;2022-12-07T00:21:16;16.73;;;11.43;;
37903;SDS011;23738;50.422;18.758;2022-12-07T00:23:48;18.37;;;12.63;;
37903;SDS011;23738;50.422;18.758;2022-12-07T00:26:21;23.17;;;13.77;;
37903;SDS011;23738;50.422;18.758;2022-12-07T00:28:51;24.70;;;16.43;;
37903;SDS011;23738;50.422;18.758;2022-12-07T00:31:21;20.67;;;14.03;;
37903;SDS011;23738;50.422;18.758;2022-12-07T00:33:51;31.30;;;14.53;;
37903;SDS011;23738;50.422;18.758;2022-12-07T00:36:18;31.67;;;15.83;;
37903;SDS011;23738;50.422;18.758;2022-12-07T00:38:47;26.70;;;13.30;;
37903;SDS011;23738;50.422;18.758;2022-12-07T00:41:17;28.57;;;14.37;;
37903;SDS011;23738;50.422;18.758;2022-12-07T00:43:46;23.60;;;14.23;;
37903;SDS011;23738;50.422;18.758;2022-12-07T00:46:14;21.93;;;14.80;;
37903;SDS011;23738;50.422;18.758;2022-12-07T00:48:41;24.30;;;16.23;;
37903;SDS011;23738;50.422;18.758;2022-12-07T00:51:07;23.17;;;13.30;;
37903;SDS011;23738;50.422;18.758;2022-12-07T00:53:37;22.80;;;13.47;;
37903;SDS011;23738;50.422;18.758;2022-12-07T00:56:05;20.07;;;13.67;;
37903;SDS011;23738;50.422;18.758;2022-12-07T00:58:39;22.52;;;15.28;;
37903;SDS011;23738;50.422;18.758;2022-12-07T01:01:06;28.63;;;17.97;;
37903;SDS011;23738;50.422;18.758;2022-12-07T01:03:33;23.47;;;16.47;;
37903;SDS011;23738;50.422;18.758;2022-12-07T01:06:00;25.60;;;18.43;;
37903;SDS011;23738;50.422;18.758;2022-12-07T01:08:26;22.97;;;16.70;;
37903;SDS011;23738;50.422;18.758;2022-12-07T01:11:02;15.63;;;13.47;;
37903;SDS011;23738;50.422;18.758;2022-12-07T01:13:32;17.47;;;13.27;;
37903;SDS011;23738;50.422;18.758;2022-12-07T01:16:00;19.10;;;13.97;;
37903;SDS011;23738;50.422;18.758;2022-12-07T01:18:30;20.90;;;14.70;;
37903;SDS011;23738;50.422;18.758;2022-12-07T01:21:02;25.10;;;15.97;;
37903;SDS011;23738;50.422;18.758;2022-12-07T01:23:31;20.93;;;15.40;;
37903;SDS011;23738;50.422;18.758;2022-12-07T01:26:00;30.43;;;18.33;;
37903;SDS011;23738;50.422;18.758;2022-12-07T01:28:28;26.77;;;16.20;;
37903;SDS011;23738;50.422;18.758;2022-12-07T01:30:59;21.43;;;14.60;;
37903;SDS011;23738;50.422;18.758;2022-12-07T01:33:31;29.23;;;16.70;;
37903;SDS011;23738;50.422;18.758;2022-12-07T01:36:03;29.03;;;17.50;;
37903;SDS011;23738;50.422;18.758;2022-12-07T01:38:31;28.27;;;19.13;;
37903;SDS011;23738;50.422;18.758;2022-12-07T01:40:58;26.83;;;18.53;;
37903;SDS011;23738;50.422;18.758;2022-12-07T01:43:27;28.37;;;18.03;;
37903;SDS011;23738;50.422;18.758;2022-12-07T01:45:55;20.77;;;14.97;;
37903;SDS011;23738;50.422;18.758;2022-12-07T01:48:22;23.17;;;14.20;;
37903;SDS011;23738;50.422;18.758;2022-12-07T01:50:51;21.83;;;14.23;;
37903;SDS011;23738;50.422;18.758;2022-12-07T01:53:21;18.40;;;13.63;;
37903;SDS011;23738;50.422;18.758;2022-12-07T01:55:50;20.47;;;15.63;;
37903;SDS011;23738;50.422;18.758;2022-12-07T01:58:18;22.37;;;15.37;;
37903;SDS011;23738;50.422;18.758;2022-12-07T02:00:45;28.77;;;14.80;;
37903;SDS011;23738;50.422;18.758;2022-12-07T02:03:14;23.63;;;13.43;;
37903;SDS011;23738;50.422;18.758;2022-12-07T02:05:57;18.52;;;12.43;;
37903;SDS011;23738;50.422;18.758;2022-12-07T02:08:25;20.33;;;13.50;;
37903;SDS011;23738;50.422;18.758;2022-12-07T02:10:51;28.33;;;12.93;;
37903;SDS011;23738;50.422;18.758;2022-12-07T02:13:27;23.17;;;13.90;;
37903;SDS011;23738;50.422;18.758;2022-12-07T02:19:03;30.73;;;14.33;;
37903;SDS011;23738;50.422;18.758;2022-12-07T02:22:01;14.20;;;12.07;;
37903;SDS011;23738;50.422;18.758;2022-12-07T02:24:54;15.57;;;12.57;;
37903;SDS011;23738;50.422;18.758;2022-12-07T02:30:35;22.37;;;14.87;;
37903;SDS011;23738;50.422;18.758;2022-12-07T02:33:07;16.33;;;14.03;;
37903;SDS011;23738;50.422;18.758;2022-12-07T02:38:16;29.90;;;17.00;;
37903;SDS011;23738;50.422;18.758;2022-12-07T02:41:02;19.83;;;14.20;;
37903;SDS011;23738;50.422;18.758;2022-12-07T02:43:34;23.00;;;15.77;;
37903;SDS011;23738;50.422;18.758;2022-12-07T02:46:10;27.00;;;16.63;;
37903;SDS011;23738;50.422;18.758;2022-12-07T02:48:46;30.80;;;18.53;;
37903;SDS011;23738;50.422;18.758;2022-12-07T02:51:16;30.53;;;19.50;;
37903;SDS011;23738;50.422;18.758;2022-12-07T02:53:44;33.13;;;19.70;;
37903;SDS011;23738;50.422;18.758;2022-12-07T03:08:04;33.20;;;18.57;;
37903;SDS011;23738;50.422;18.758;2022-12-07T03:13:50;38.37;;;19.70;;
37903;SDS011;23738;50.422;18.758;2022-12-07T03:16:28;43.33;;;22.87;;
37903;SDS011;23738;50.422;18.758;2022-12-07T03:18:56;47.53;;;21.37;;
37903;SDS011;23738;50.422;18.758;2022-12-07T03:21:31;46.37;;;20.40;;
37903;SDS011;23738;50.422;18.758;2022-12-07T03:24:13;48.58;;;23.07;;
37903;SDS011;23738;50.422;18.758;2022-12-07T03:26:44;43.57;;;22.83;;
37903;SDS011;23738;50.422;18.758;2022-12-07T03:29:16;59.43;;;27.73;;
37903;SDS011;23738;50.422;18.758;2022-12-07T03:31:46;56.30;;;27.20;;
37903;SDS011;23738;50.422;18.758;2022-12-07T03:34:17;63.27;;;28.13;;
37903;SDS011;23738;50.422;18.758;2022-12-07T03:36:54;53.20;;;25.70;;
37903;SDS011;23738;50.422;18.758;2022-12-07T03:39:25;45.93;;;24.17;;
37903;SDS011;23738;50.422;18.758;2022-12-07T03:42:00;49.80;;;26.37;;
37903;SDS011;23738;50.422;18.758;2022-12-07T03:44:30;37.67;;;23.37;;
37903;SDS011;23738;50.422;18.758;2022-12-07T03:47:11;45.17;;;25.53;;
37903;SDS011;23738;50.422;18.758;2022-12-07T03:49:51;43.33;;;23.87;;
37903;SDS011;23738;50.422;18.758;2022-12-07T03:52:44;36.07;;;22.93;;
37903;SDS011;23738;50.422;18.758;2022-12-07T03:55:29;36.67;;;18.70;;
37903;SDS011;23738;50.422;18.758;2022-12-07T03:57:59;32.80;;;19.27;;
37903;SDS011;23738;50.422;18.758;2022-12-07T04:00:31;29.80;;;19.37;;
37903;SDS011;23738;50.422;18.758;2022-12-07T04:02:58;29.67;;;18.60;;
37903;SDS011;23738;50.422;18.758;2022-12-07T04:05:24;27.73;;;18.47;;
37903;SDS011;23738;50.422;18.758;2022-12-07T04:07:50;30.57;;;17.50;;
37903;SDS011;23738;50.422;18.758;2022-12-07T04:10:16;27.50;;;15.60;;
37903;SDS011;23738;50.422;18.758;2022-12-07T04:12:42;25.50;;;15.50;;
37903;SDS011;23738;50.422;18.758;2022-12-07T04:15:08;23.83;;;15.10;;
37903;SDS011;23738;50.422;18.758;2022-12-07T04:17:35;20.53;;;13.90;;
37903;SDS011;23738;50.422;18.758;2022-12-07T04:20:01;24.50;;;15.97;;
37903;SDS011;23738;50.422;18.758;2022-12-07T04:22:29;20.77;;;16.03;;
37903;SDS011;23738;50.422;18.758;2022-12-07T04:24:55;21.80;;;15.00;;
37903;SDS011;23738;50.422;18.758;2022-12-07T04:27:21;24.30;;;15.00;;
37903;SDS011;23738;50.422;18.758;2022-12-07T04:29:47;17.60;;;12.73;;
37903;SDS011;23738;50.422;18.758;2022-12-07T04:32:12;20.53;;;13.33;;
37903;SDS011;23738;50.422;18.758;2022-12-07T04:34:38;24.23;;;13.43;;
37903;SDS011;23738;50.422;18.758;2022-12-07T04:37:04;20.50;;;13.30;;
37903;SDS011;23738;50.422;18.758;2022-12-07T04:39:31;18.27;;;13.07;;
37903;SDS011;23738;50.422;18.758;2022-12-07T04:41:59;19.37;;;14.30;;
37903;SDS011;23738;50.422;18.758;2022-12-07T04:44:26;23.37;;;15.00;;
37903;SDS011;23738;50.422;18.758;2022-12-07T04:46:54;20.57;;;12.47;;
37903;SDS011;23738;50.422;18.758;2022-12-07T04:49:20;18.50;;;12.13;;
37903;SDS011;23738;50.422;18.758;2022-12-07T04:51:47;20.50;;;11.67;;
37903;SDS011;23738;50.422;18.758;2022-12-07T04:54:13;14.53;;;12.77;;
37903;SDS011;23738;50.422;18.758;2022-12-07T04:56:41;19.80;;;12.67;;
37903;SDS011;23738;50.422;18.758;2022-12-07T04:59:08;20.90;;;13.97;;
37903;SDS011;23738;50.422;18.758;2022-12-07T05:01:36;18.83;;;13.87;;
37903;SDS011;23738;50.422;18.758;2022-12-07T05:04:02;18.57;;;13.63;;
37903;SDS011;23738;50.422;18.758;2022-12-07T05:06:28;19.20;;;13.50;;
37903;SDS011;23738;50.422;18.758;2022-12-07T05:08:54;15.13;;;12.00;;
37903;SDS011;23738;50.422;18.758;2022-12-07T05:11:20;17.07;;;11.30;;
37903;SDS011;23738;50.422;18.758;2022-12-07T05:14:16;14.97;;;12.23;;
37903;SDS011;23738;50.422;18.758;2022-12-07T05:16:44;22.33;;;12.80;;
37903;SDS011;23738;50.422;18.758;2022-12-07T05:19:13;14.93;;;12.53;;
37903;SDS011;23738;50.422;18.758;2022-12-07T05:21:40;15.83;;;11.67;;
37903;SDS011;23738;50.422;18.758;2022-12-07T05:24:06;18.40;;;11.13;;
37903;SDS011;23738;50.422;18.758;2022-12-07T05:26:34;12.83;;;10.67;;
37903;SDS011;23738;50.422;18.758;2022-12-07T05:28:59;13.70;;;10.77;;
37903;SDS011;23738;50.422;18.758;2022-12-07T05:31:25;14.87;;;10.40;;
37903;SDS011;23738;50.422;18.758;2022-12-07T05:33:52;14.37;;;11.80;;
37903;SDS011;23738;50.422;18.758;2022-12-07T05:36:18;13.27;;;10.73;;
37903;SDS011;23738;50.422;18.758;2022-12-07T05:38:44;13.77;;;10.77;;
37903;SDS011;23738;50.422;18.758;2022-12-07T05:41:12;11.13;;;9.93;;
37903;SDS011;23738;50.422;18.758;2022-12-07T05:43:58;13.17;;;9.97;;
37903;SDS011;23738;50.422;18.758;2022-12-07T05:46:24;11.83;;;10.60;;
37903;SDS011;23738;50.422;18.758;2022-12-07T05:48:50;10.43;;;9.23;;
37903;SDS011;23738;50.422;18.758;2022-12-07T05:51:16;9.43;;;8.20;;
37903;SDS011;23738;50.422;18.758;2022-12-07T05:53:42;10.43;;;8.43;;
37903;SDS011;23738;50.422;18.758;2022-12-07T05:56:07;12.07;;;8.53;;
37903;SDS011;23738;50.422;18.758;2022-12-07T05:58:33;9.20;;;7.80;;
37903;SDS011;23738;50.422;18.758;2022-12-07T06:01:17;8.97;;;8.07;;
37903;SDS011;23738;50.422;18.758;2022-12-07T06:03:43;10.33;;;8.67;;
37903;SDS011;23738;50.422;18.758;2022-12-07T06:06:10;11.27;;;8.50;;
37903;SDS011;23738;50.422;18.758;2022-12-07T06:08:35;9.80;;;7.83;;
37903;SDS011;23738;50.422;18.758;2022-12-07T06:11:01;8.67;;;7.57;;
37903;SDS011;23738;50.422;18.758;2022-12-07T06:13:46;8.87;;;7.20;;
37903;SDS011;23738;50.422;18.758;2022-12-07T06:16:12;9.43;;;7.50;;
37903;SDS011;23738;50.422;18.758;2022-12-07T06:18:37;9.13;;;8.10;;
37903;SDS011;23738;50.422;18.758;2022-12-07T06:21:03;12.43;;;8.83;;
37903;SDS011;23738;50.422;18.758;2022-12-07T06:23:29;9.17;;;7.77;;
37903;SDS011;23738;50.422;18.758;2022-12-07T06:25:55;10.83;;;9.00;;
37903;SDS011;23738;50.422;18.758;2022-12-07T06:28:20;11.27;;;8.90;;
37903;SDS011;23738;50.422;18.758;2022-12-07T06:30:46;9.40;;;8.10;;
37903;SDS011;23738;50.422;18.758;2022-12-07T06:33:12;9.60;;;7.37;;
37903;SDS011;23738;50.422;18.758;2022-12-07T06:35:38;8.80;;;7.53;;
37903;SDS011;23738;50.422;18.758;2022-12-07T06:38:03;9.37;;;8.47;;
37903;SDS011;23738;50.422;18.758;2022-12-07T06:40:29;9.07;;;7.77;;
37903;SDS011;23738;50.422;18.758;2022-12-07T06:42:55;10.23;;;8.77;;
37903;SDS011;23738;50.422;18.758;2022-12-07T06:45:21;10.40;;;8.77;;
37903;SDS011;23738;50.422;18.758;2022-12-07T06:47:46;9.63;;;7.57;;
37903;SDS011;23738;50.422;18.758;2022-12-07T06:50:12;8.87;;;7.17;;
37903;SDS011;23738;50.422;18.758;2022-12-07T06:52:38;12.80;;;9.23;;
37903;SDS011;23738;50.422;18.758;2022-12-07T06:55:04;12.00;;;9.60;;
37903;SDS011;23738;50.422;18.758;2022-12-07T06:57:31;12.57;;;9.73;;
37903;SDS011;23738;50.422;18.758;2022-12-07T06:59:57;14.37;;;11.10;;
37903;SDS011;23738;50.422;18.758;2022-12-07T07:02:22;11.57;;;10.13;;
37903;SDS011;23738;50.422;18.758;2022-12-07T07:04:48;10.03;;;8.60;;
37903;SDS011;23738;50.422;18.758;2022-12-07T07:07:14;10.07;;;8.20;;
37903;SDS011;23738;50.422;18.758;2022-12-07T07:09:39;10.73;;;8.37;;
37903;SDS011;23738;50.422;18.758;2022-12-07T07:12:06;17.33;;;11.67;;
37903;SDS011;23738;50.422;18.758;2022-12-07T07:14:32;27.63;;;15.80;;
37903;SDS011;23738;50.422;18.758;2022-12-07T07:16:57;69.27;;;29.03;;
37903;SDS011;23738;50.422;18.758;2022-12-07T07:19:23;23.83;;;15.10;;
37903;SDS011;23738;50.422;18.758;2022-12-07T07:21:49;24.60;;;12.50;;
37903;SDS011;23738;50.422;18.758;2022-12-07T07:24:15;14.83;;;13.03;;
37903;SDS011;23738;50.422;18.758;2022-12-07T07:26:40;17.50;;;12.53;;
37903;SDS011;23738;50.422;18.758;2022-12-07T07:29:06;19.93;;;12.67;;
37903;SDS011;23738;50.422;18.758;2022-12-07T07:31:32;14.80;;;13.27;;
37903;SDS011;23738;50.422;18.758;2022-12-07T07:33:59;24.27;;;17.73;;
37903;SDS011;23738;50.422;18.758;2022-12-07T07:36:25;26.37;;;17.97;;
37903;SDS011;23738;50.422;18.758;2022-12-07T07:38:51;34.63;;;19.47;;
37903;SDS011;23738;50.422;18.758;2022-12-07T07:41:17;50.00;;;24.87;;
37903;SDS011;23738;50.422;18.758;2022-12-07T07:43:42;48.23;;;23.33;;
37903;SDS011;23738;50.422;18.758;2022-12-07T07:46:08;54.73;;;24.00;;
37903;SDS011;23738;50.422;18.758;2022-12-07T07:48:34;57.70;;;24.77;;
37903;SDS011;23738;50.422;18.758;2022-12-07T07:51:00;53.93;;;25.17;;
37903;SDS011;23738;50.422;18.758;2022-12-07T07:53:25;39.30;;;17.63;;
37903;SDS011;23738;50.422;18.758;2022-12-07T07:55:52;35.03;;;17.83;;
37903;SDS011;23738;50.422;18.758;2022-12-07T07:58:20;34.57;;;16.63;;
37903;SDS011;23738;50.422;18.758;2022-12-07T08:00:46;25.63;;;15.63;;
37903;SDS011;23738;50.422;18.758;2022-12-07T08:03:12;29.77;;;17.43;;
37903;SDS011;23738;50.422;18.758;2022-12-07T08:05:37;35.43;;;20.07;;
37903;SDS011;23738;50.422;18.758;2022-12-07T08:08:03;35.63;;;20.63;;
37903;SDS011;23738;50.422;18.758;2022-12-07T08:10:29;22.87;;;16.97;;
37903;SDS011;23738;50.422;18.758;2022-12-07T08:12:57;22.33;;;15.37;;
37903;SDS011;23738;50.422;18.758;2022-12-07T08:15:36;23.90;;;14.27;;
37903;SDS011;23738;50.422;18.758;2022-12-07T08:18:04;22.27;;;16.67;;
37903;SDS011;23738;50.422;18.758;2022-12-07T08:20:31;27.80;;;19.20;;
37903;SDS011;23738;50.422;18.758;2022-12-07T08:22:58;21.90;;;17.90;;
37903;SDS011;23738;50.422;18.758;2022-12-07T08:25:24;25.97;;;18.53;;
37903;SDS011;23738;50.422;18.758;2022-12-07T08:27:51;16.90;;;14.00;;
37903;SDS011;23738;50.422;18.758;2022-12-07T08:30:17;15.43;;;11.90;;
37903;SDS011;23738;50.422;18.758;2022-12-07T08:32:44;12.73;;;11.50;;
37903;SDS011;23738;50.422;18.758;2022-12-07T08:35:11;14.57;;;12.13;;
37903;SDS011;23738;50.422;18.758;2022-12-07T08:37:38;17.27;;;12.70;;
37903;SDS011;23738;50.422;18.758;2022-12-07T08:40:05;12.27;;;10.57;;
37903;SDS011;23738;50.422;18.758;2022-12-07T08:42:33;13.43;;;12.13;;
37903;SDS011;23738;50.422;18.758;2022-12-07T08:45:09;12.57;;;10.93;;
37903;SDS011;23738;50.422;18.758;2022-12-07T08:47:39;14.83;;;10.27;;
37903;SDS011;23738;50.422;18.758;2022-12-07T08:50:12;17.10;;;12.53;;
37903;SDS011;23738;50.422;18.758;2022-12-07T08:52:39;15.53;;;13.73;;
37903;SDS011;23738;50.422;18.758;2022-12-07T08:55:07;17.50;;;14.67;;
37903;SDS011;23738;50.422;18.758;2022-12-07T08:57:35;28.03;;;18.20;;
37903;SDS011;23738;50.422;18.758;2022-12-07T09:00:06;30.20;;;21.10;;
37903;SDS011;23738;50.422;18.758;2022-12-07T09:02:33;34.97;;;21.53;;
37903;SDS011;23738;50.422;18.758;2022-12-07T09:04:58;29.80;;;18.80;;
37903;SDS011;23738;50.422;18.758;2022-12-07T09:07:24;33.57;;;20.03;;
37903;SDS011;23738;50.422;18.758;2022-12-07T09:09:51;41.97;;;24.10;;
37903;SDS011;23738;50.422;18.758;2022-12-07T09:12:17;48.00;;;27.77;;
37903;SDS011;23738;50.422;18.758;2022-12-07T09:14:43;61.10;;;31.17;;
37903;SDS011;23738;50.422;18.758;2022-12-07T09:17:09;52.67;;;30.63;;
37903;SDS011;23738;50.422;18.758;2022-12-07T09:19:38;42.17;;;24.13;;
37903;SDS011;23738;50.422;18.758;2022-12-07T09:22:04;37.00;;;22.33;;
37903;SDS011;23738;50.422;18.758;2022-12-07T09:24:30;38.23;;;22.20;;
37903;SDS011;23738;50.422;18.758;2022-12-07T09:26:57;35.07;;;19.73;;
37903;SDS011;23738;50.422;18.758;2022-12-07T09:29:23;38.03;;;23.93;;
37903;SDS011;23738;50.422;18.758;2022-12-07T09:31:50;42.30;;;24.33;;
37903;SDS011;23738;50.422;18.758;2022-12-07T09:34:17;43.13;;;23.80;;
37903;SDS011;23738;50.422;18.758;2022-12-07T09:36:43;32.40;;;20.73;;
37903;SDS011;23738;50.422;18.758;2022-12-07T09:39:09;26.73;;;18.20;;
37903;SDS011;23738;50.422;18.758;2022-12-07T09:41:39;26.47;;;17.97;;
37903;SDS011;23738;50.422;18.758;2022-12-07T09:44:12;25.53;;;17.83;;
37903;SDS011;23738;50.422;18.758;2022-12-07T09:46:42;30.60;;;19.20;;
37903;SDS011;23738;50.422;18.758;2022-12-07T09:49:20;27.13;;;20.07;;
37903;SDS011;23738;50.422;18.758;2022-12-07T09:51:59;28.30;;;20.50;;
37903;SDS011;23738;50.422;18.758;2022-12-07T09:57:02;26.67;;;18.17;;
37903;SDS011;23738;50.422;18.758;2022-12-07T09:59:28;19.70;;;14.27;;
37903;SDS011;23738;50.422;18.758;2022-12-07T10:01:54;23.23;;;15.80;;
37903;SDS011;23738;50.422;18.758;2022-12-07T10:04:21;22.63;;;16.77;;
37903;SDS011;23738;50.422;18.758;2022-12-07T10:06:50;25.17;;;17.73;;
37903;SDS011;23738;50.422;18.758;2022-12-07T10:09:17;24.73;;;18.23;;
37903;SDS011;23738;50.422;18.758;2022-12-07T10:11:58;24.43;;;18.00;;
37903;SDS011;23738;50.422;18.758;2022-12-07T10:14:38;30.97;;;18.17;;
37903;SDS011;23738;50.422;18.758;2022-12-07T10:22:55;32.50;;;19.60;;
37903;SDS011;23738;50.422;18.758;2022-12-07T10:25:34;33.30;;;19.53;;
37903;SDS011;23738;50.422;18.758;2022-12-07T10:28:03;34.67;;;20.10;;
37903;SDS011;23738;50.422;18.758;2022-12-07T10:33:28;31.93;;;17.85;;
37903;SDS011;23738;50.422;18.758;2022-12-07T10:35:57;35.07;;;18.57;;
37903;SDS011;23738;50.422;18.758;2022-12-07T10:38:25;29.27;;;17.67;;
37903;SDS011;23738;50.422;18.758;2022-12-07T10:41:03;35.93;;;20.00;;
37903;SDS011;23738;50.422;18.758;2022-12-07T10:43:31;34.50;;;20.00;;
37903;SDS011;23738;50.422;18.758;2022-12-07T10:48:50;23.42;;;13.90;;
37903;SDS011;23738;50.422;18.758;2022-12-07T10:51:39;23.83;;;14.25;;
37903;SDS011;23738;50.422;18.758;2022-12-07T10:54:43;22.93;;;14.33;;
37903;SDS011;23738;50.422;18.758;2022-12-07T11:00:25;35.70;;;20.72;;
37903;SDS011;23738;50.422;18.758;2022-12-07T11:11:18;24.90;;;15.87;;
37903;SDS011;23738;50.422;18.758;2022-12-07T11:22:33;20.47;;;13.40;;
37903;SDS011;23738;50.422;18.758;2022-12-07T11:28:20;17.10;;;13.20;;
37903;SDS011;23738;50.422;18.758;2022-12-07T11:30:57;16.93;;;14.00;;
37903;SDS011;23738;50.422;18.758;2022-12-07T11:34:33;20.20;;;14.07;;
37903;SDS011;23738;50.422;18.758;2022-12-07T11:36:17;21.07;;;15.25;;
37903;SDS011;23738;50.422;18.758;2022-12-07T11:39:06;19.40;;;12.70;;
37903;SDS011;23738;50.422;18.758;2022-12-07T11:41:59;13.17;;;10.27;;
37903;SDS011;23738;50.422;18.758;2022-12-07T11:44:32;14.90;;;10.47;;
37903;SDS011;23738;50.422;18.758;2022-12-07T11:47:27;13.30;;;10.97;;
37903;SDS011;23738;50.422;18.758;2022-12-07T11:50:14;19.50;;;12.30;;
37903;SDS011;23738;50.422;18.758;2022-12-07T11:52:53;13.90;;;12.10;;
37903;SDS011;23738;50.422;18.758;2022-12-07T12:01:19;11.63;;;9.80;;
37903;SDS011;23738;50.422;18.758;2022-12-07T12:06:41;18.13;;;11.80;;
37903;SDS011;23738;50.422;18.758;2022-12-07T12:14:53;17.00;;;13.53;;
37903;SDS011;23738;50.422;18.758;2022-12-07T12:17:47;14.07;;;12.67;;
37903;SDS011;23738;50.422;18.758;2022-12-07T12:20:40;13.40;;;12.00;;
37903;SDS011;23738;50.422;18.758;2022-12-07T12:23:19;23.98;;;14.23;;
37903;SDS011;23738;50.422;18.758;2022-12-07T12:25:50;16.90;;;13.83;;
37903;SDS011;23738;50.422;18.758;2022-12-07T12:28:29;15.70;;;12.20;;
37903;SDS011;23738;50.422;18.758;2022-12-07T12:31:11;14.70;;;12.03;;
37903;SDS011;23738;50.422;18.758;2022-12-07T12:33:43;14.57;;;11.50;;
37903;SDS011;23738;50.422;18.758;2022-12-07T12:39:09;14.17;;;12.73;;
37903;SDS011;23738;50.422;18.758;2022-12-07T12:47:03;16.90;;;13.57;;
37903;SDS011;23738;50.422;18.758;2022-12-07T12:49:33;22.37;;;15.23;;
37903;SDS011;23738;50.422;18.758;2022-12-07T12:57:42;42.08;;;24.37;;
37903;SDS011;23738;50.422;18.758;2022-12-07T13:00:17;39.13;;;23.97;;
37903;SDS011;23738;50.422;18.758;2022-12-07T13:05:27;31.90;;;18.73;;
37903;SDS011;23738;50.422;18.758;2022-12-07T13:08:01;33.33;;;20.87;;
37903;SDS011;23738;50.422;18.758;2022-12-07T13:10:47;32.87;;;21.00;;
37903;SDS011;23738;50.422;18.758;2022-12-07T13:15:54;31.87;;;20.40;;
37903;SDS011;23738;50.422;18.758;2022-12-07T13:18:36;33.67;;;21.40;;
37903;SDS011;23738;50.422;18.758;2022-12-07T13:29:21;58.60;;;26.77;;
37903;SDS011;23738;50.422;18.758;2022-12-07T13:31:48;112.63;;;46.97;;
37903;SDS011;23738;50.422;18.758;2022-12-07T13:34:36;67.55;;;30.20;;
37903;SDS011;23738;50.422;18.758;2022-12-07T13:37:10;43.47;;;23.13;;
37903;SDS011;23738;50.422;18.758;2022-12-07T13:39:50;39.37;;;22.40;;
37903;SDS011;23738;50.422;18.758;2022-12-07T13:42:24;41.43;;;22.83;;
37903;SDS011;23738;50.422;18.758;2022-12-07T13:44:54;39.73;;;22.07;;
37903;SDS011;23738;50.422;18.758;2022-12-07T13:47:34;25.93;;;18.33;;
37903;SDS011;23738;50.422;18.758;2022-12-07T13:52:57;51.70;;;30.27;;
37903;SDS011;23738;50.422;18.758;2022-12-07T13:55:25;54.13;;;33.20;;
37903;SDS011;23738;50.422;18.758;2022-12-07T13:57:53;49.10;;;31.50;;
37903;SDS011;23738;50.422;18.758;2022-12-07T14:05:33;26.50;;;17.33;;
37903;SDS011;23738;50.422;18.758;2022-12-07T14:08:02;24.77;;;18.50;;
37903;SDS011;23738;50.422;18.758;2022-12-07T14:10:41;27.60;;;18.73;;
37903;SDS011;23738;50.422;18.758;2022-12-07T14:18:55;10.50;;;9.40;;
37903;SDS011;23738;50.422;18.758;2022-12-07T14:21:25;9.37;;;8.37;;
37903;SDS011;23738;50.422;18.758;2022-12-07T14:26:44;9.33;;;8.43;;
37903;SDS011;23738;50.422;18.758;2022-12-07T14:29:27;9.80;;;8.80;;
37903;SDS011;23738;50.422;18.758;2022-12-07T14:31:57;13.67;;;12.23;;
37903;SDS011;23738;50.422;18.758;2022-12-07T14:34:52;14.33;;;12.87;;
37903;SDS011;23738;50.422;18.758;2022-12-07T14:37:30;12.47;;;11.17;;
37903;SDS011;23738;50.422;18.758;2022-12-07T14:39:56;21.03;;;16.90;;
37903;SDS011;23738;50.422;18.758;2022-12-07T14:42:23;27.90;;;18.33;;
37903;SDS011;23738;50.422;18.758;2022-12-07T14:44:53;34.87;;;20.93;;
37903;SDS011;23738;50.422;18.758;2022-12-07T14:47:19;33.23;;;21.97;;
37903;SDS011;23738;50.422;18.758;2022-12-07T14:49:45;29.93;;;21.13;;
37903;SDS011;23738;50.422;18.758;2022-12-07T14:52:13;43.90;;;24.93;;
37903;SDS011;23738;50.422;18.758;2022-12-07T14:54:53;53.67;;;22.23;;
37903;SDS011;23738;50.422;18.758;2022-12-07T14:57:19;57.87;;;22.27;;
37903;SDS011;23738;50.422;18.758;2022-12-07T14:59:45;65.83;;;23.03;;
37903;SDS011;23738;50.422;18.758;2022-12-07T15:02:14;51.00;;;21.13;;
37903;SDS011;23738;50.422;18.758;2022-12-07T15:04:39;43.93;;;19.07;;
37903;SDS011;23738;50.422;18.758;2022-12-07T15:07:06;45.63;;;22.33;;
37903;SDS011;23738;50.422;18.758;2022-12-07T15:09:42;71.43;;;27.20;;
37903;SDS011;23738;50.422;18.758;2022-12-07T15:12:08;48.07;;;22.83;;
37903;SDS011;23738;50.422;18.758;2022-12-07T15:14:33;33.90;;;18.10;;
37903;SDS011;23738;50.422;18.758;2022-12-07T15:16:59;26.20;;;17.00;;
37903;SDS011;23738;50.422;18.758;2022-12-07T15:19:25;26.60;;;17.33;;
37903;SDS011;23738;50.422;18.758;2022-12-07T15:21:52;24.70;;;16.03;;
37903;SDS011;23738;50.422;18.758;2022-12-07T15:24:18;29.13;;;19.10;;
37903;SDS011;23738;50.422;18.758;2022-12-07T15:26:45;36.13;;;20.67;;
37903;SDS011;23738;50.422;18.758;2022-12-07T15:29:11;42.37;;;25.67;;
37903;SDS011;23738;50.422;18.758;2022-12-07T15:31:39;38.40;;;23.93;;
37903;SDS011;23738;50.422;18.758;2022-12-07T15:34:05;35.30;;;19.30;;
37903;SDS011;23738;50.422;18.758;2022-12-07T15:36:32;37.40;;;21.17;;
37903;SDS011;23738;50.422;18.758;2022-12-07T15:38:59;40.03;;;20.63;;
37903;SDS011;23738;50.422;18.758;2022-12-07T15:41:25;49.20;;;23.23;;
37903;SDS011;23738;50.422;18.758;2022-12-07T15:43:51;48.87;;;23.27;;
37903;SDS011;23738;50.422;18.758;2022-12-07T15:46:36;40.23;;;21.00;;
37903;SDS011;23738;50.422;18.758;2022-12-07T15:49:07;38.87;;;20.97;;
37903;SDS011;23738;50.422;18.758;2022-12-07T15:51:36;43.10;;;21.93;;
37903;SDS011;23738;50.422;18.758;2022-12-07T15:54:01;46.07;;;23.20;;
37903;SDS011;23738;50.422;18.758;2022-12-07T15:56:27;40.50;;;21.57;;
37903;SDS011;23738;50.422;18.758;2022-12-07T15:58:53;42.77;;;24.50;;
37903;SDS011;23738;50.422;18.758;2022-12-07T16:01:19;45.77;;;26.30;;
37903;SDS011;23738;50.422;18.758;2022-12-07T16:03:45;40.73;;;22.90;;
37903;SDS011;23738;50.422;18.758;2022-12-07T16:06:11;41.93;;;23.20;;
37903;SDS011;23738;50.422;18.758;2022-12-07T16:08:41;33.07;;;19.00;;
37903;SDS011;23738;50.422;18.758;2022-12-07T16:11:09;38.37;;;20.13;;
37903;SDS011;23738;50.422;18.758;2022-12-07T16:13:35;35.07;;;17.90;;
37903;SDS011;23738;50.422;18.758;2022-12-07T16:16:02;27.20;;;17.70;;
37903;SDS011;23738;50.422;18.758;2022-12-07T16:18:30;28.37;;;17.03;;
37903;SDS011;23738;50.422;18.758;2022-12-07T16:20:56;35.13;;;20.87;;
37903;SDS011;23738;50.422;18.758;2022-12-07T16:23:22;32.50;;;19.57;;
37903;SDS011;23738;50.422;18.758;2022-12-07T16:25:47;36.07;;;21.23;;
37903;SDS011;23738;50.422;18.758;2022-12-07T16:28:13;37.37;;;22.97;;